• Join FlightAware (Why Join?)
  • Login
  • US Flag 
09:49AM EST


 

Airport Tracker/Info


-or-


 

Live Flight TrackerFlight Track Log ✈ RPA4937 ✈ 2013-May-05 ✈ KEWR - KRDU

Flight Track Log - Related Links

Times and Time Zones

All times are in EDT time to prevent confusion due to time zone crossing. See the RPA4937 flight status page for this flight to view local times or setup timezone preferences in your user account.

Time Position Orientation Groundspeed Altitude Reporting Facility
EDT Latitude Longitude Course Direction KTS MPH feet Rate Location/Type
09:48AM 40.7333 -74.1333 180° South 209 241 2,700  Level New York TRACON
09:49AM 40.7333 -74.2000 270° West 233 268 4,900 2,340 Climbing New York TRACON
09:50AM 40.4178 -74.2142 157° South  Level FlightAware Approximate
09:50AM 40.6833 -74.2333 207° Southwest 233 268 7,400  Level New York TRACON
09:51AM 40.3270 -74.1647 157° South  Level FlightAware Approximate
09:51AM 40.6333 -74.2833 217° Southwest 225 259 9,800  Level New York TRACON
09:52AM 40.2331 -74.1723 194° South  Level FlightAware Approximate
09:53AM 40.1374 -74.2000 180° South  Level FlightAware Approximate
09:53AM 40.5400 -74.3075 191° South 278 320 10,900  Level New York Center
09:54AM 40.4547 -74.2978 175° South 305 351 11,000  Climbing New York Center
09:55AM 40.3572 -74.2872 175° South 319 367 11,000  Level New York Center
09:56AM 40.2739 -74.2803 176° South 330 380 11,000 240 Level New York Center
09:57AM 40.1742 -74.2697 175° South 330 380 11,600 900 Climbing New York Center
09:58AM 40.0914 -74.2600 175° South 330 380 12,800 1,260 Climbing Washington Center
09:59AM 40.0083 -74.2697 185° South 323 372 14,100 1,260 Climbing Washington Center
10:00AM 39.9444 -74.3467 223° Southwest 298 343 15,400 1,260 Climbing Washington Center
10:01AM 39.8808 -74.4236 223° Southwest 305 351 16,600 1,200 Climbing Washington Center
10:02AM 39.8169 -74.4975 222° Southwest 310 357 17,800 960 Climbing Washington Center
10:03AM 39.7550 -74.5767 225° Southwest 310 357 18,600 900 Climbing Washington Center
10:04AM 39.6889 -74.6531 222° Southwest 315 362 19,700 900 Climbing Washington Center
10:05AM 39.6311 -74.7211 222° Southwest 315 362 20,500 840 Climbing Washington Center
10:06AM 39.5672 -74.7975 223° Southwest 315 362 21,500 720 Climbing Washington Center
10:07AM 39.5008 -74.8733 221° Southwest 315 362 22,000 480 Climbing Washington Center
10:08AM 39.4325 -74.9575 224° Southwest 325 374 22,500 600 Climbing Washington Center
10:09AM 39.3622 -75.0358 221° Southwest 330 380 23,300 660 Climbing Washington Center
10:10AM 39.2981 -75.1169 224° Southwest 330 380 23,900 300 Climbing Washington Center
10:11AM 39.2314 -75.2003 224° Southwest 330 380 24,000  Climbing Washington Center
10:12AM 39.1672 -75.2944 229° Southwest 340 391 24,000  Level Washington Center
10:13AM 39.0944 -75.3803 222° Southwest 350 403 24,000  Level Washington Center
10:14AM 39.0236 -75.4714 225° Southwest 355 409 24,000  Level Washington Center
10:15AM 38.9550 -75.5597 225° Southwest 355 409 24,000  Level Washington Center
10:16AM 38.8861 -75.6531 227° Southwest 355 409 24,000  Level Washington Center
10:17AM 38.8506 -75.7675 248° West 341 392 24,000  Level Washington Center
10:18AM 38.8169 -75.8819 249° West 346 398 24,000  Level Washington Center
10:19AM 38.7564 -75.9722 229° Southwest 346 398 24,000  Level Washington Center
10:20AM 38.6728 -76.0489 216° Southwest 346 398 24,000 -180 Level Washington Center
10:21AM 38.5933 -76.1203 215° Southwest 357 411 23,700 -720 Descending Washington Center
10:22AM 38.4989 -76.2019 214° Southwest 372 428 22,600 -900 Descending Washington Center
10:23AM 38.4089 -76.2700 211° Southwest 378 435 22,000 -360 Descending Washington Center
10:24AM 38.3231 -76.3381 212° Southwest 372 428 22,000  Level Washington Center
10:25AM 38.2478 -76.3956 211° Southwest 366 421 22,000  Level Washington Center
10:26AM 38.1639 -76.4633 212° Southwest 366 421 22,000  Level Washington Center
10:27AM 38.0797 -76.5308 212° Southwest 366 421 22,000  Level Washington Center
10:28AM 37.9939 -76.5983 212° Southwest 366 421 22,000  Level Washington Center
10:29AM 37.9097 -76.6631 211° Southwest 366 421 22,000  Level Washington Center
10:30AM 37.8278 -76.7275 212° Southwest 366 421 22,000  Level Washington Center
10:31AM 37.7417 -76.7944 212° Southwest 366 421 22,000  Level Washington Center
10:32AM 37.6492 -76.8664 212° Southwest 366 421 22,000  Level Washington Center
10:33AM 37.5672 -76.9306 212° Southwest 361 415 22,000  Level Washington Center
10:34AM 37.4831 -76.9997 213° Southwest 361 415 22,000  Level Washington Center
10:35AM 37.4072 -77.0558 210° Southwest 368 423 22,000 -180 Level Washington Center
10:36AM 37.3167 -77.1275 212° Southwest 368 423 21,700 -600 Descending Washington Center
10:37AM 37.2386 -77.1806 208° Southwest 363 418 20,800 -900 Descending Washington Center
10:38AM 37.1525 -77.2414 209° Southwest 357 411 20,000 -420 Descending Washington Center
10:39AM 37.0719 -77.3178 217° Southwest 357 411 20,000  Level Washington Center
10:40AM 36.9958 -77.3914 218° Southwest 357 411 20,000  Level Washington Center
10:41AM 36.9197 -77.4675 219° Southwest 357 411 20,000  Level Washington Center
10:42AM 36.8392 -77.5408 216° Southwest 357 411 20,000  Level Washington Center
10:43AM 36.7586 -77.6167 217° Southwest 357 411 20,000 -360 Level Washington Center
10:44AM 36.6844 -77.6897 218° Southwest 351 404 19,300 -1,200 Descending Washington Center
10:45AM 36.6058 -77.7603 216° Southwest 351 404 17,600 -1,740 Descending Washington Center
10:46AM 36.5294 -77.8383 219° Southwest 351 404 15,800 -1,740 Descending Washington Center
10:47AM 36.4550 -77.9058 216° Southwest 346 398 14,200 -1,860 Descending Washington Center
10:47AM 36.3936 -77.9581 214° Southwest 319 367 12,700 -1,860 Descending Washington Center
10:48AM 36.3764 -77.9756 219° Southwest 339 390 12,400 -1,380 Descending Washington Center
10:48AM 36.3572 -77.9931 216° Southwest 312 359 11,900 -1,500 Descending Washington Center
10:49AM 36.3106 -78.0433 221° Southwest 327 376 10,900 -1,500 Descending Washington Center
10:49AM 36.2892 -78.0581 209° Southwest 302 348 10,400 -1,380 Descending Washington Center
10:50AM 36.2444 -78.1006 217° Southwest 307 353 9,500 -1,320 Descending Washington Center
10:51AM 36.1850 -78.1578 218° Southwest 289 333 8,200 -720 Descending Washington Center
10:52AM 36.1375 -78.2308 231° Southwest 271 312 8,100 -180 Descending Washington Center
10:52AM 36.1286 -78.2536 244° Southwest 276 318 8,000  Descending Washington Center
10:53AM 36.1022 -78.3119 241° Southwest 271 312 8,100  Climbing Washington Center
10:53AM 36.0869 -78.3369 233° Southwest 273 314 8,000 -120 Descending Washington Center
10:54AM 36.0519 -78.4156 241° Southwest 270 311 8,000  Level Washington Center
10:55AM 36.0256 -78.4711 240° Southwest 271 312 8,000  Level Washington Center
10:55AM 36.0144 -78.4911 236° Southwest 272 313 8,000  Level Washington Center
10:56AM 35.9858 -78.5517 240° Southwest 271 312 8,000  Level Washington Center
10:56AM 35.9708 -78.5717 227° Southwest 273 314 8,000  Level Washington Center
10:57AM 35.9383 -78.6217 231° Southwest 271 312 8,000 -540 Level Washington Center
10:57AM 35.9192 -78.6364 212° Southwest 270 311 7,500 -1,740 Descending Washington Center
10:58AM 35.8550 -78.6956 217° Southwest 255 293 5,700 -1,800 Descending Washington Center
10:59AM 35.8056 -78.7472 220° Southwest 247 284 3,900 -1,440 Descending Washington Center
11:00AM 35.7581 -78.8094 227° Southwest 246 283 3,000 -480 Descending Washington Center
11:01AM 35.7169 -78.8692 230° Southwest 225 259 3,000 -360 Level Washington Center
11:02AM 35.7400 -78.9392 292° West 227 261 2,300 -540 Descending Washington Center
11:03AM 35.7781 -78.9203 22° Northeast 163 188 2,000 -300 Descending Washington Center